sensor_id;sensor_type;location;lat;lon;timestamp;temperature;humidity
4755;DHT22;2391;47.212;7.542;2023-12-04T00:00:40;0.20;70.70
4755;DHT22;2391;47.212;7.542;2023-12-04T00:03:06;0.20;70.60
4755;DHT22;2391;47.212;7.542;2023-12-04T00:05:32;0.20;70.30
4755;DHT22;2391;47.212;7.542;2023-12-04T00:07:58;0.20;70.30
4755;DHT22;2391;47.212;7.542;2023-12-04T00:10:24;0.20;70.30
4755;DHT22;2391;47.212;7.542;2023-12-04T00:12:50;0.20;70.30
4755;DHT22;2391;47.212;7.542;2023-12-04T00:15:18;0.30;70.50
4755;DHT22;2391;47.212;7.542;2023-12-04T00:17:44;0.30;70.40
4755;DHT22;2391;47.212;7.542;2023-12-04T00:20:10;0.30;70.80
4755;DHT22;2391;47.212;7.542;2023-12-04T00:22:37;0.30;70.40
4755;DHT22;2391;47.212;7.542;2023-12-04T00:25:04;0.30;70.40
4755;DHT22;2391;47.212;7.542;2023-12-04T00:27:30;0.30;70.70
4755;DHT22;2391;47.212;7.542;2023-12-04T00:29:56;0.30;70.80
4755;DHT22;2391;47.212;7.542;2023-12-04T00:32:22;0.30;71.00
4755;DHT22;2391;47.212;7.542;2023-12-04T00:34:48;0.20;71.20
4755;DHT22;2391;47.212;7.542;2023-12-04T00:37:13;0.20;71.30
4755;DHT22;2391;47.212;7.542;2023-12-04T00:39:39;0.10;71.20
4755;DHT22;2391;47.212;7.542;2023-12-04T00:42:05;0.20;71.50
4755;DHT22;2391;47.212;7.542;2023-12-04T00:44:31;0.20;71.50
4755;DHT22;2391;47.212;7.542;2023-12-04T00:46:57;0.30;71.50
4755;DHT22;2391;47.212;7.542;2023-12-04T00:49:23;0.30;71.40
4755;DHT22;2391;47.212;7.542;2023-12-04T00:51:49;0.40;71.60
4755;DHT22;2391;47.212;7.542;2023-12-04T00:54:15;0.40;71.90
4755;DHT22;2391;47.212;7.542;2023-12-04T00:56:41;0.40;71.30
4755;DHT22;2391;47.212;7.542;2023-12-04T00:59:10;0.40;71.30
4755;DHT22;2391;47.212;7.542;2023-12-04T01:01:38;0.40;71.30
4755;DHT22;2391;47.212;7.542;2023-12-04T01:04:04;0.40;71.20
4755;DHT22;2391;47.212;7.542;2023-12-04T01:06:29;0.40;71.20
4755;DHT22;2391;47.212;7.542;2023-12-04T01:08:56;0.30;71.50
4755;DHT22;2391;47.212;7.542;2023-12-04T01:11:22;0.30;71.70
4755;DHT22;2391;47.212;7.542;2023-12-04T01:13:49;0.30;71.90
4755;DHT22;2391;47.212;7.542;2023-12-04T01:16:15;0.20;71.90
4755;DHT22;2391;47.212;7.542;2023-12-04T01:18:42;0.30;72.00
4755;DHT22;2391;47.212;7.542;2023-12-04T01:21:08;0.30;72.20
4755;DHT22;2391;47.212;7.542;2023-12-04T01:23:35;0.20;72.40
4755;DHT22;2391;47.212;7.542;2023-12-04T01:26:02;0.20;72.70
4755;DHT22;2391;47.212;7.542;2023-12-04T01:28:28;0.20;72.70
4755;DHT22;2391;47.212;7.542;2023-12-04T01:30:54;0.20;72.60
4755;DHT22;2391;47.212;7.542;2023-12-04T01:33:19;0.20;72.50
4755;DHT22;2391;47.212;7.542;2023-12-04T01:35:45;0.20;72.30
4755;DHT22;2391;47.212;7.542;2023-12-04T01:38:11;0.10;72.20
4755;DHT22;2391;47.212;7.542;2023-12-04T01:40:37;0.00;72.30
4755;DHT22;2391;47.212;7.542;2023-12-04T01:43:03;-0.10;72.80
4755;DHT22;2391;47.212;7.542;2023-12-04T01:45:28;-0.20;72.70
4755;DHT22;2391;47.212;7.542;2023-12-04T01:47:54;-0.20;72.90
4755;DHT22;2391;47.212;7.542;2023-12-04T01:50:20;-0.30;73.20
4755;DHT22;2391;47.212;7.542;2023-12-04T01:52:46;-0.40;72.90
4755;DHT22;2391;47.212;7.542;2023-12-04T01:55:13;-0.30;73.70
4755;DHT22;2391;47.212;7.542;2023-12-04T01:57:40;-0.30;73.00
4755;DHT22;2391;47.212;7.542;2023-12-04T02:00:07;-0.30;72.80
4755;DHT22;2391;47.212;7.542;2023-12-04T02:02:39;-0.30;72.80
4755;DHT22;2391;47.212;7.542;2023-12-04T02:05:07;-0.30;73.10
4755;DHT22;2391;47.212;7.542;2023-12-04T02:07:33;-0.30;73.00
4755;DHT22;2391;47.212;7.542;2023-12-04T02:10:00;-0.30;72.60
4755;DHT22;2391;47.212;7.542;2023-12-04T02:12:25;-0.20;72.70
4755;DHT22;2391;47.212;7.542;2023-12-04T02:14:52;-0.20;72.60
4755;DHT22;2391;47.212;7.542;2023-12-04T02:17:18;-0.20;72.70
4755;DHT22;2391;47.212;7.542;2023-12-04T02:19:45;-0.10;72.90
4755;DHT22;2391;47.212;7.542;2023-12-04T02:22:11;0.00;72.80
4755;DHT22;2391;47.212;7.542;2023-12-04T02:24:36;0.00;72.60
4755;DHT22;2391;47.212;7.542;2023-12-04T02:27:18;0.00;72.60
4755;DHT22;2391;47.212;7.542;2023-12-04T02:29:55;0.00;72.60
4755;DHT22;2391;47.212;7.542;2023-12-04T02:32:21;0.10;72.50
4755;DHT22;2391;47.212;7.542;2023-12-04T02:34:49;0.10;72.60
4755;DHT22;2391;47.212;7.542;2023-12-04T02:37:17;0.10;72.30
4755;DHT22;2391;47.212;7.542;2023-12-04T02:39:43;0.10;72.00
4755;DHT22;2391;47.212;7.542;2023-12-04T02:42:12;0.10;71.90
4755;DHT22;2391;47.212;7.542;2023-12-04T02:44:39;0.20;71.70
4755;DHT22;2391;47.212;7.542;2023-12-04T02:47:05;0.20;71.40
4755;DHT22;2391;47.212;7.542;2023-12-04T02:49:31;0.20;71.40
4755;DHT22;2391;47.212;7.542;2023-12-04T02:51:56;0.30;71.50
4755;DHT22;2391;47.212;7.542;2023-12-04T02:54:23;0.30;71.40
4755;DHT22;2391;47.212;7.542;2023-12-04T02:56:49;0.30;71.30
4755;DHT22;2391;47.212;7.542;2023-12-04T02:59:15;0.40;71.10
4755;DHT22;2391;47.212;7.542;2023-12-04T03:01:41;0.40;71.30
4755;DHT22;2391;47.212;7.542;2023-12-04T03:04:07;0.40;71.40
4755;DHT22;2391;47.212;7.542;2023-12-04T03:06:33;0.40;71.40
4755;DHT22;2391;47.212;7.542;2023-12-04T03:08:59;0.40;71.70
4755;DHT22;2391;47.212;7.542;2023-12-04T03:11:25;0.50;71.70
4755;DHT22;2391;47.212;7.542;2023-12-04T03:13:51;0.50;71.30
4755;DHT22;2391;47.212;7.542;2023-12-04T03:16:17;0.50;71.30
4755;DHT22;2391;47.212;7.542;2023-12-04T03:18:44;0.50;71.50
4755;DHT22;2391;47.212;7.542;2023-12-04T03:21:11;0.50;71.60
4755;DHT22;2391;47.212;7.542;2023-12-04T03:23:36;0.40;71.80
4755;DHT22;2391;47.212;7.542;2023-12-04T03:26:02;0.40;71.90
4755;DHT22;2391;47.212;7.542;2023-12-04T03:28:28;0.40;71.90
4755;DHT22;2391;47.212;7.542;2023-12-04T03:30:54;0.40;72.00
4755;DHT22;2391;47.212;7.542;2023-12-04T03:33:20;0.40;72.00
4755;DHT22;2391;47.212;7.542;2023-12-04T03:35:46;0.50;72.00
4755;DHT22;2391;47.212;7.542;2023-12-04T03:38:12;0.40;72.10
4755;DHT22;2391;47.212;7.542;2023-12-04T03:40:38;0.50;72.10
4755;DHT22;2391;47.212;7.542;2023-12-04T03:43:04;0.50;72.00
4755;DHT22;2391;47.212;7.542;2023-12-04T03:45:29;0.50;72.00
4755;DHT22;2391;47.212;7.542;2023-12-04T03:47:55;0.50;72.00
4755;DHT22;2391;47.212;7.542;2023-12-04T03:50:21;0.40;71.90
4755;DHT22;2391;47.212;7.542;2023-12-04T03:52:47;0.40;71.80
4755;DHT22;2391;47.212;7.542;2023-12-04T03:55:12;0.30;72.00
4755;DHT22;2391;47.212;7.542;2023-12-04T03:57:39;0.30;72.00
4755;DHT22;2391;47.212;7.542;2023-12-04T04:00:05;0.30;72.00
4755;DHT22;2391;47.212;7.542;2023-12-04T04:02:31;0.30;72.10
4755;DHT22;2391;47.212;7.542;2023-12-04T04:04:57;0.30;72.30
4755;DHT22;2391;47.212;7.542;2023-12-04T04:07:23;0.20;72.20
4755;DHT22;2391;47.212;7.542;2023-12-04T04:09:49;0.20;72.50
4755;DHT22;2391;47.212;7.542;2023-12-04T04:12:14;0.20;72.20
4755;DHT22;2391;47.212;7.542;2023-12-04T04:14:40;0.20;72.30
4755;DHT22;2391;47.212;7.542;2023-12-04T04:17:06;0.20;72.40
4755;DHT22;2391;47.212;7.542;2023-12-04T04:19:32;0.30;72.40
4755;DHT22;2391;47.212;7.542;2023-12-04T04:21:57;0.30;72.40
4755;DHT22;2391;47.212;7.542;2023-12-04T04:24:23;0.30;72.10
4755;DHT22;2391;47.212;7.542;2023-12-04T04:26:49;0.40;72.30
4755;DHT22;2391;47.212;7.542;2023-12-04T04:29:15;0.40;72.20
4755;DHT22;2391;47.212;7.542;2023-12-04T04:31:40;0.40;72.00
4755;DHT22;2391;47.212;7.542;2023-12-04T04:34:06;0.50;71.90
4755;DHT22;2391;47.212;7.542;2023-12-04T04:36:32;0.60;71.80
4755;DHT22;2391;47.212;7.542;2023-12-04T04:38:57;0.60;72.00
4755;DHT22;2391;47.212;7.542;2023-12-04T04:41:23;0.60;72.50
4755;DHT22;2391;47.212;7.542;2023-12-04T04:43:49;0.70;71.50
4755;DHT22;2391;47.212;7.542;2023-12-04T04:46:15;0.70;71.60
4755;DHT22;2391;47.212;7.542;2023-12-04T04:48:40;0.70;71.60
4755;DHT22;2391;47.212;7.542;2023-12-04T04:51:06;0.60;71.40
4755;DHT22;2391;47.212;7.542;2023-12-04T04:53:32;0.60;71.60
4755;DHT22;2391;47.212;7.542;2023-12-04T04:55:59;0.60;71.70
4755;DHT22;2391;47.212;7.542;2023-12-04T04:58:25;0.60;71.80
4755;DHT22;2391;47.212;7.542;2023-12-04T05:00:51;0.50;71.90
4755;DHT22;2391;47.212;7.542;2023-12-04T05:03:17;0.50;71.90
4755;DHT22;2391;47.212;7.542;2023-12-04T05:05:42;0.60;72.00
4755;DHT22;2391;47.212;7.542;2023-12-04T05:08:08;0.60;72.00
4755;DHT22;2391;47.212;7.542;2023-12-04T05:10:34;0.60;72.20
4755;DHT22;2391;47.212;7.542;2023-12-04T05:13:00;0.60;72.50
4755;DHT22;2391;47.212;7.542;2023-12-04T05:15:25;0.50;72.70
4755;DHT22;2391;47.212;7.542;2023-12-04T05:17:51;0.50;72.50
4755;DHT22;2391;47.212;7.542;2023-12-04T05:20:17;0.60;72.40
4755;DHT22;2391;47.212;7.542;2023-12-04T05:22:43;0.60;72.80
4755;DHT22;2391;47.212;7.542;2023-12-04T05:25:09;0.60;73.40
4755;DHT22;2391;47.212;7.542;2023-12-04T05:27:35;0.60;72.70
4755;DHT22;2391;47.212;7.542;2023-12-04T05:30:00;0.70;72.80
4755;DHT22;2391;47.212;7.542;2023-12-04T05:32:26;0.70;72.60
4755;DHT22;2391;47.212;7.542;2023-12-04T05:34:52;0.50;72.20
4755;DHT22;2391;47.212;7.542;2023-12-04T05:37:18;0.50;72.40
4755;DHT22;2391;47.212;7.542;2023-12-04T05:39:43;0.40;72.70
4755;DHT22;2391;47.212;7.542;2023-12-04T05:42:09;0.40;72.90
4755;DHT22;2391;47.212;7.542;2023-12-04T05:44:35;0.40;72.90
4755;DHT22;2391;47.212;7.542;2023-12-04T05:47:01;0.40;73.00
4755;DHT22;2391;47.212;7.542;2023-12-04T05:49:26;0.40;73.00
4755;DHT22;2391;47.212;7.542;2023-12-04T05:51:54;0.40;72.80
4755;DHT22;2391;47.212;7.542;2023-12-04T05:54:20;0.40;72.90
4755;DHT22;2391;47.212;7.542;2023-12-04T05:56:45;0.40;72.80
4755;DHT22;2391;47.212;7.542;2023-12-04T05:59:11;0.40;73.10
4755;DHT22;2391;47.212;7.542;2023-12-04T06:01:37;0.40;73.00
4755;DHT22;2391;47.212;7.542;2023-12-04T06:04:03;0.40;73.20
4755;DHT22;2391;47.212;7.542;2023-12-04T06:06:29;0.40;73.40
4755;DHT22;2391;47.212;7.542;2023-12-04T06:08:55;0.50;73.30
4755;DHT22;2391;47.212;7.542;2023-12-04T06:11:21;0.50;73.10
4755;DHT22;2391;47.212;7.542;2023-12-04T06:13:47;0.60;73.00
4755;DHT22;2391;47.212;7.542;2023-12-04T06:16:13;0.60;72.90
4755;DHT22;2391;47.212;7.542;2023-12-04T06:18:39;0.60;72.90
4755;DHT22;2391;47.212;7.542;2023-12-04T06:21:05;0.60;73.10
4755;DHT22;2391;47.212;7.542;2023-12-04T06:23:32;0.60;73.30
4755;DHT22;2391;47.212;7.542;2023-12-04T06:25:58;0.60;73.40
4755;DHT22;2391;47.212;7.542;2023-12-04T06:28:24;0.70;73.40
4755;DHT22;2391;47.212;7.542;2023-12-04T06:30:51;0.70;73.30
4755;DHT22;2391;47.212;7.542;2023-12-04T06:33:17;0.80;73.20
4755;DHT22;2391;47.212;7.542;2023-12-04T06:35:44;0.80;73.10
4755;DHT22;2391;47.212;7.542;2023-12-04T06:38:14;0.80;73.30
4755;DHT22;2391;47.212;7.542;2023-12-04T06:40:45;0.70;73.50
4755;DHT22;2391;47.212;7.542;2023-12-04T06:43:11;0.60;73.80
4755;DHT22;2391;47.212;7.542;2023-12-04T06:45:38;0.50;73.50
4755;DHT22;2391;47.212;7.542;2023-12-04T06:48:04;0.40;73.60
4755;DHT22;2391;47.212;7.542;2023-12-04T06:50:30;0.40;73.80
4755;DHT22;2391;47.212;7.542;2023-12-04T06:52:56;0.10;73.70
4755;DHT22;2391;47.212;7.542;2023-12-04T06:55:23;0.00;74.50
4755;DHT22;2391;47.212;7.542;2023-12-04T06:57:49;0.10;74.80
4755;DHT22;2391;47.212;7.542;2023-12-04T07:00:15;0.10;74.70
4755;DHT22;2391;47.212;7.542;2023-12-04T07:02:42;0.00;74.10
4755;DHT22;2391;47.212;7.542;2023-12-04T07:05:08;-0.10;74.70
4755;DHT22;2391;47.212;7.542;2023-12-04T07:07:34;-0.30;74.90
4755;DHT22;2391;47.212;7.542;2023-12-04T07:10:00;-0.40;75.20
4755;DHT22;2391;47.212;7.542;2023-12-04T07:12:26;-0.40;75.80
4755;DHT22;2391;47.212;7.542;2023-12-04T07:14:52;-0.40;75.70
4755;DHT22;2391;47.212;7.542;2023-12-04T07:17:18;-0.30;75.60
4755;DHT22;2391;47.212;7.542;2023-12-04T07:19:43;-0.20;75.40
4755;DHT22;2391;47.212;7.542;2023-12-04T07:22:09;0.00;75.20
4755;DHT22;2391;47.212;7.542;2023-12-04T07:24:35;0.10;75.00
4755;DHT22;2391;47.212;7.542;2023-12-04T07:27:00;0.30;74.90
4755;DHT22;2391;47.212;7.542;2023-12-04T07:29:26;0.40;74.80
4755;DHT22;2391;47.212;7.542;2023-12-04T07:31:52;0.50;74.60
4755;DHT22;2391;47.212;7.542;2023-12-04T07:34:18;0.50;74.50
4755;DHT22;2391;47.212;7.542;2023-12-04T07:36:43;0.50;74.20
4755;DHT22;2391;47.212;7.542;2023-12-04T07:39:10;0.60;74.10
4755;DHT22;2391;47.212;7.542;2023-12-04T07:41:37;0.40;74.10
4755;DHT22;2391;47.212;7.542;2023-12-04T07:44:03;0.30;74.80
4755;DHT22;2391;47.212;7.542;2023-12-04T07:46:29;0.30;74.90
4755;DHT22;2391;47.212;7.542;2023-12-04T07:48:55;0.30;74.90
4755;DHT22;2391;47.212;7.542;2023-12-04T07:51:21;0.30;75.10
4755;DHT22;2391;47.212;7.542;2023-12-04T07:53:47;0.30;75.30
4755;DHT22;2391;47.212;7.542;2023-12-04T07:56:13;0.40;75.30
4755;DHT22;2391;47.212;7.542;2023-12-04T07:58:39;0.50;75.20
4755;DHT22;2391;47.212;7.542;2023-12-04T08:01:05;0.70;75.00
4755;DHT22;2391;47.212;7.542;2023-12-04T08:03:31;0.70;74.80
4755;DHT22;2391;47.212;7.542;2023-12-04T08:05:57;0.80;74.50
4755;DHT22;2391;47.212;7.542;2023-12-04T08:08:24;0.90;74.40
4755;DHT22;2391;47.212;7.542;2023-12-04T08:10:50;1.00;74.40
4755;DHT22;2391;47.212;7.542;2023-12-04T08:13:16;1.00;74.10
4755;DHT22;2391;47.212;7.542;2023-12-04T08:15:43;1.10;74.00
4755;DHT22;2391;47.212;7.542;2023-12-04T08:18:09;1.10;74.00
4755;DHT22;2391;47.212;7.542;2023-12-04T08:20:35;1.00;73.70
4755;DHT22;2391;47.212;7.542;2023-12-04T08:23:01;0.90;74.10
4755;DHT22;2391;47.212;7.542;2023-12-04T08:25:27;0.90;74.70
4755;DHT22;2391;47.212;7.542;2023-12-04T08:27:52;0.90;74.70
4755;DHT22;2391;47.212;7.542;2023-12-04T08:30:18;1.00;75.30
4755;DHT22;2391;47.212;7.542;2023-12-04T08:32:44;1.00;74.50
4755;DHT22;2391;47.212;7.542;2023-12-04T08:35:10;1.00;74.50
4755;DHT22;2391;47.212;7.542;2023-12-04T08:37:36;1.00;74.50
4755;DHT22;2391;47.212;7.542;2023-12-04T08:40:02;1.10;74.90
4755;DHT22;2391;47.212;7.542;2023-12-04T08:42:29;1.10;74.80
4755;DHT22;2391;47.212;7.542;2023-12-04T08:44:55;1.00;75.40
4755;DHT22;2391;47.212;7.542;2023-12-04T08:47:21;1.00;75.30
4755;DHT22;2391;47.212;7.542;2023-12-04T08:49:47;0.90;75.50
4755;DHT22;2391;47.212;7.542;2023-12-04T08:52:12;0.80;76.00
4755;DHT22;2391;47.212;7.542;2023-12-04T08:54:39;0.80;76.50
4755;DHT22;2391;47.212;7.542;2023-12-04T08:57:07;0.80;76.60
4755;DHT22;2391;47.212;7.542;2023-12-04T08:59:32;0.90;76.00
4755;DHT22;2391;47.212;7.542;2023-12-04T09:01:58;0.90;75.90
4755;DHT22;2391;47.212;7.542;2023-12-04T09:04:24;0.80;75.70
4755;DHT22;2391;47.212;7.542;2023-12-04T09:06:50;0.60;76.10
4755;DHT22;2391;47.212;7.542;2023-12-04T09:09:16;0.60;76.80
4755;DHT22;2391;47.212;7.542;2023-12-04T09:11:42;0.60;76.80
4755;DHT22;2391;47.212;7.542;2023-12-04T09:14:09;0.60;76.60
4755;DHT22;2391;47.212;7.542;2023-12-04T09:16:35;0.70;76.90
4755;DHT22;2391;47.212;7.542;2023-12-04T09:19:00;0.80;76.60
4755;DHT22;2391;47.212;7.542;2023-12-04T09:21:26;0.80;76.40
4755;DHT22;2391;47.212;7.542;2023-12-04T09:23:52;0.90;76.40
4755;DHT22;2391;47.212;7.542;2023-12-04T09:26:18;1.00;76.20
4755;DHT22;2391;47.212;7.542;2023-12-04T09:28:44;1.00;75.80
4755;DHT22;2391;47.212;7.542;2023-12-04T09:31:10;1.00;76.00
4755;DHT22;2391;47.212;7.542;2023-12-04T09:33:36;1.00;76.10
4755;DHT22;2391;47.212;7.542;2023-12-04T09:36:02;1.00;76.10
4755;DHT22;2391;47.212;7.542;2023-12-04T09:38:29;1.00;75.80
4755;DHT22;2391;47.212;7.542;2023-12-04T09:41:00;0.90;76.20
4755;DHT22;2391;47.212;7.542;2023-12-04T09:43:25;0.90;76.30
4755;DHT22;2391;47.212;7.542;2023-12-04T09:45:52;0.90;76.50
4755;DHT22;2391;47.212;7.542;2023-12-04T09:48:18;0.90;76.60
4755;DHT22;2391;47.212;7.542;2023-12-04T09:50:47;1.00;76.70
4755;DHT22;2391;47.212;7.542;2023-12-04T09:53:13;1.10;76.90
4755;DHT22;2391;47.212;7.542;2023-12-04T09:55:40;1.30;76.80
4755;DHT22;2391;47.212;7.542;2023-12-04T09:58:06;1.40;76.40
4755;DHT22;2391;47.212;7.542;2023-12-04T10:00:32;1.50;76.20
4755;DHT22;2391;47.212;7.542;2023-12-04T10:02:58;1.60;76.00
4755;DHT22;2391;47.212;7.542;2023-12-04T10:05:25;1.60;75.50
4755;DHT22;2391;47.212;7.542;2023-12-04T10:07:51;1.50;75.60
4755;DHT22;2391;47.212;7.542;2023-12-04T10:10:17;1.40;76.20
4755;DHT22;2391;47.212;7.542;2023-12-04T10:12:43;1.30;76.40
4755;DHT22;2391;47.212;7.542;2023-12-04T10:15:11;1.20;76.50
4755;DHT22;2391;47.212;7.542;2023-12-04T10:17:39;1.10;76.70
4755;DHT22;2391;47.212;7.542;2023-12-04T10:20:11;1.00;77.10
4755;DHT22;2391;47.212;7.542;2023-12-04T10:22:57;1.00;77.20
4755;DHT22;2391;47.212;7.542;2023-12-04T10:25:25;1.00;77.10
4755;DHT22;2391;47.212;7.542;2023-12-04T10:27:51;1.10;77.30
4755;DHT22;2391;47.212;7.542;2023-12-04T10:30:27;1.30;77.10
4755;DHT22;2391;47.212;7.542;2023-12-04T10:32:55;1.50;76.90
4755;DHT22;2391;47.212;7.542;2023-12-04T10:35:21;1.60;76.30
4755;DHT22;2391;47.212;7.542;2023-12-04T10:37:52;1.70;75.70
4755;DHT22;2391;47.212;7.542;2023-12-04T10:40:27;1.80;75.60
4755;DHT22;2391;47.212;7.542;2023-12-04T10:45:40;1.90;75.40
4755;DHT22;2391;47.212;7.542;2023-12-04T10:48:06;1.90;75.00
4755;DHT22;2391;47.212;7.542;2023-12-04T10:50:37;1.80;75.20
4755;DHT22;2391;47.212;7.542;2023-12-04T10:53:07;1.90;75.40
4755;DHT22;2391;47.212;7.542;2023-12-04T10:55:34;1.90;75.50
4755;DHT22;2391;47.212;7.542;2023-12-04T10:58:04;2.00;75.60
4755;DHT22;2391;47.212;7.542;2023-12-04T11:00:33;2.00;75.50
4755;DHT22;2391;47.212;7.542;2023-12-04T11:03:07;2.10;75.30
4755;DHT22;2391;47.212;7.542;2023-12-04T11:05:39;2.20;75.40
4755;DHT22;2391;47.212;7.542;2023-12-04T11:08:08;2.20;75.40
4755;DHT22;2391;47.212;7.542;2023-12-04T11:10:38;2.30;75.50
4755;DHT22;2391;47.212;7.542;2023-12-04T11:13:07;2.20;75.60
4755;DHT22;2391;47.212;7.542;2023-12-04T11:15:39;2.30;75.70
4755;DHT22;2391;47.212;7.542;2023-12-04T11:18:04;2.40;75.60
4755;DHT22;2391;47.212;7.542;2023-12-04T11:20:35;2.50;75.50
4755;DHT22;2391;47.212;7.542;2023-12-04T11:23:03;2.50;75.40
4755;DHT22;2391;47.212;7.542;2023-12-04T11:25:32;2.40;75.30
4755;DHT22;2391;47.212;7.542;2023-12-04T11:27:59;2.40;75.60
4755;DHT22;2391;47.212;7.542;2023-12-04T11:30:27;2.30;75.70
4755;DHT22;2391;47.212;7.542;2023-12-04T11:32:55;2.20;76.10
4755;DHT22;2391;47.212;7.542;2023-12-04T11:35:27;2.10;76.70
4755;DHT22;2391;47.212;7.542;2023-12-04T11:37:53;2.00;76.80
4755;DHT22;2391;47.212;7.542;2023-12-04T11:40:19;1.90;77.10
4755;DHT22;2391;47.212;7.542;2023-12-04T11:42:45;1.80;77.10
4755;DHT22;2391;47.212;7.542;2023-12-04T11:45:19;1.70;77.70
4755;DHT22;2391;47.212;7.542;2023-12-04T11:50:18;1.50;78.60
4755;DHT22;2391;47.212;7.542;2023-12-04T11:52:44;1.40;79.00
4755;DHT22;2391;47.212;7.542;2023-12-04T11:55:11;1.50;79.30
4755;DHT22;2391;47.212;7.542;2023-12-04T11:57:39;1.50;79.40
4755;DHT22;2391;47.212;7.542;2023-12-04T12:05:24;1.60;79.20
4755;DHT22;2391;47.212;7.542;2023-12-04T12:07:51;1.60;79.70
4755;DHT22;2391;47.212;7.542;2023-12-04T12:10:17;1.60;80.30
4755;DHT22;2391;47.212;7.542;2023-12-04T12:12:43;1.70;79.60
4755;DHT22;2391;47.212;7.542;2023-12-04T12:15:10;1.80;79.80
4755;DHT22;2391;47.212;7.542;2023-12-04T12:17:40;1.90;79.80
4755;DHT22;2391;47.212;7.542;2023-12-04T12:20:11;2.00;79.60
4755;DHT22;2391;47.212;7.542;2023-12-04T12:22:38;2.00;79.70
4755;DHT22;2391;47.212;7.542;2023-12-04T12:25:08;2.10;79.70
4755;DHT22;2391;47.212;7.542;2023-12-04T12:27:34;2.20;80.00
4755;DHT22;2391;47.212;7.542;2023-12-04T12:30:00;2.10;79.90
4755;DHT22;2391;47.212;7.542;2023-12-04T12:32:27;2.10;80.10
4755;DHT22;2391;47.212;7.542;2023-12-04T12:34:53;2.10;81.20
4755;DHT22;2391;47.212;7.542;2023-12-04T12:37:21;2.10;80.50
4755;DHT22;2391;47.212;7.542;2023-12-04T12:39:47;2.10;80.60
4755;DHT22;2391;47.212;7.542;2023-12-04T12:42:28;2.00;80.70
4755;DHT22;2391;47.212;7.542;2023-12-04T12:44:52;1.80;81.30
4755;DHT22;2391;47.212;7.542;2023-12-04T12:47:18;1.80;81.80
4755;DHT22;2391;47.212;7.542;2023-12-04T12:49:44;1.80;82.20
4755;DHT22;2391;47.212;7.542;2023-12-04T12:52:11;1.80;82.60
4755;DHT22;2391;47.212;7.542;2023-12-04T12:54:38;1.70;82.80
4755;DHT22;2391;47.212;7.542;2023-12-04T12:57:05;1.70;83.20
4755;DHT22;2391;47.212;7.542;2023-12-04T12:59:32;1.70;83.30
4755;DHT22;2391;47.212;7.542;2023-12-04T13:01:59;1.80;83.30
4755;DHT22;2391;47.212;7.542;2023-12-04T13:04:37;1.90;83.40
4755;DHT22;2391;47.212;7.542;2023-12-04T13:07:01;1.90;83.30
4755;DHT22;2391;47.212;7.542;2023-12-04T13:09:28;1.90;83.50
4755;DHT22;2391;47.212;7.542;2023-12-04T13:11:54;1.80;83.30
4755;DHT22;2391;47.212;7.542;2023-12-04T13:14:20;1.80;83.70
4755;DHT22;2391;47.212;7.542;2023-12-04T13:16:46;1.80;84.20
4755;DHT22;2391;47.212;7.542;2023-12-04T13:19:12;1.80;83.90
4755;DHT22;2391;47.212;7.542;2023-12-04T13:21:38;1.90;84.10
4755;DHT22;2391;47.212;7.542;2023-12-04T13:24:04;1.90;83.70
4755;DHT22;2391;47.212;7.542;2023-12-04T13:26:32;2.00;83.70
4755;DHT22;2391;47.212;7.542;2023-12-04T13:28:58;2.10;84.30
4755;DHT22;2391;47.212;7.542;2023-12-04T13:31:25;2.20;83.30
4755;DHT22;2391;47.212;7.542;2023-12-04T13:33:51;2.20;83.10
4755;DHT22;2391;47.212;7.542;2023-12-04T13:36:17;2.20;83.50
4755;DHT22;2391;47.212;7.542;2023-12-04T13:38:43;2.40;83.40
4755;DHT22;2391;47.212;7.542;2023-12-04T13:41:09;2.50;83.00
4755;DHT22;2391;47.212;7.542;2023-12-04T13:43:37;2.60;82.70
4755;DHT22;2391;47.212;7.542;2023-12-04T13:46:18;2.60;82.20
4755;DHT22;2391;47.212;7.542;2023-12-04T13:48:44;2.70;82.00
4755;DHT22;2391;47.212;7.542;2023-12-04T13:51:11;2.70;81.90
4755;DHT22;2391;47.212;7.542;2023-12-04T13:53:37;2.70;82.00
4755;DHT22;2391;47.212;7.542;2023-12-04T13:56:06;2.70;82.00
4755;DHT22;2391;47.212;7.542;2023-12-04T13:58:36;2.70;82.10
4755;DHT22;2391;47.212;7.542;2023-12-04T14:01:07;2.70;82.20
4755;DHT22;2391;47.212;7.542;2023-12-04T14:03:45;2.60;82.30
4755;DHT22;2391;47.212;7.542;2023-12-04T14:06:11;2.70;82.30
4755;DHT22;2391;47.212;7.542;2023-12-04T14:08:37;2.70;82.50
4755;DHT22;2391;47.212;7.542;2023-12-04T14:11:04;2.70;82.40
4755;DHT22;2391;47.212;7.542;2023-12-04T14:13:32;2.60;82.80
4755;DHT22;2391;47.212;7.542;2023-12-04T14:15:58;2.50;83.00
4755;DHT22;2391;47.212;7.542;2023-12-04T14:18:24;2.50;83.00
4755;DHT22;2391;47.212;7.542;2023-12-04T14:20:50;2.50;83.20
4755;DHT22;2391;47.212;7.542;2023-12-04T14:23:16;2.60;82.90
4755;DHT22;2391;47.212;7.542;2023-12-04T14:25:47;2.50;83.10
4755;DHT22;2391;47.212;7.542;2023-12-04T14:28:13;2.40;83.40
4755;DHT22;2391;47.212;7.542;2023-12-04T14:30:39;2.30;83.90
4755;DHT22;2391;47.212;7.542;2023-12-04T14:33:06;2.20;84.30
4755;DHT22;2391;47.212;7.542;2023-12-04T14:35:32;2.10;84.60
4755;DHT22;2391;47.212;7.542;2023-12-04T14:37:58;2.10;84.70
4755;DHT22;2391;47.212;7.542;2023-12-04T14:40:23;2.10;84.70
4755;DHT22;2391;47.212;7.542;2023-12-04T14:42:49;2.20;84.40
4755;DHT22;2391;47.212;7.542;2023-12-04T14:45:16;2.30;84.30
4755;DHT22;2391;47.212;7.542;2023-12-04T14:47:43;2.40;84.20
4755;DHT22;2391;47.212;7.542;2023-12-04T14:50:09;2.50;84.10
4755;DHT22;2391;47.212;7.542;2023-12-04T14:52:38;2.50;84.10
4755;DHT22;2391;47.212;7.542;2023-12-04T14:55:06;2.60;84.00
4755;DHT22;2391;47.212;7.542;2023-12-04T14:57:36;2.70;83.70
4755;DHT22;2391;47.212;7.542;2023-12-04T15:00:06;2.80;83.70
4755;DHT22;2391;47.212;7.542;2023-12-04T15:02:37;2.80;83.30
4755;DHT22;2391;47.212;7.542;2023-12-04T15:05:22;2.90;83.00
4755;DHT22;2391;47.212;7.542;2023-12-04T15:08:02;3.00;83.00
4755;DHT22;2391;47.212;7.542;2023-12-04T15:10:46;2.90;82.90
4755;DHT22;2391;47.212;7.542;2023-12-04T15:13:22;3.00;82.40
4755;DHT22;2391;47.212;7.542;2023-12-04T15:16:09;3.00;82.60
4755;DHT22;2391;47.212;7.542;2023-12-04T15:18:42;2.90;82.90
4755;DHT22;2391;47.212;7.542;2023-12-04T15:21:26;2.90;83.10
4755;DHT22;2391;47.212;7.542;2023-12-04T15:23:54;2.90;82.90
4755;DHT22;2391;47.212;7.542;2023-12-04T15:26:20;2.90;83.00
4755;DHT22;2391;47.212;7.542;2023-12-04T15:28:46;2.90;82.90
4755;DHT22;2391;47.212;7.542;2023-12-04T15:31:12;2.90;82.90
4755;DHT22;2391;47.212;7.542;2023-12-04T15:33:37;2.80;82.90
4755;DHT22;2391;47.212;7.542;2023-12-04T15:36:04;2.70;83.20
4755;DHT22;2391;47.212;7.542;2023-12-04T15:38:30;2.60;83.60
4755;DHT22;2391;47.212;7.542;2023-12-04T15:40:56;2.60;83.80
4755;DHT22;2391;47.212;7.542;2023-12-04T15:43:22;2.70;84.00
4755;DHT22;2391;47.212;7.542;2023-12-04T15:45:47;2.60;83.90
4755;DHT22;2391;47.212;7.542;2023-12-04T15:48:13;2.60;84.00
4755;DHT22;2391;47.212;7.542;2023-12-04T15:50:39;2.60;84.00
4755;DHT22;2391;47.212;7.542;2023-12-04T15:53:05;2.50;84.30
4755;DHT22;2391;47.212;7.542;2023-12-04T15:55:30;2.50;84.30
4755;DHT22;2391;47.212;7.542;2023-12-04T15:57:56;2.50;84.50
4755;DHT22;2391;47.212;7.542;2023-12-04T16:00:27;2.50;84.40
4755;DHT22;2391;47.212;7.542;2023-12-04T16:02:51;2.50;84.30
4755;DHT22;2391;47.212;7.542;2023-12-04T16:05:17;2.50;84.60
4755;DHT22;2391;47.212;7.542;2023-12-04T16:07:43;2.40;84.50
4755;DHT22;2391;47.212;7.542;2023-12-04T16:10:10;2.40;85.00
4755;DHT22;2391;47.212;7.542;2023-12-04T16:12:36;2.40;85.20
4755;DHT22;2391;47.212;7.542;2023-12-04T16:15:06;2.40;85.10
4755;DHT22;2391;47.212;7.542;2023-12-04T16:17:37;2.40;85.20
4755;DHT22;2391;47.212;7.542;2023-12-04T16:20:06;2.50;85.30
4755;DHT22;2391;47.212;7.542;2023-12-04T16:22:41;2.50;85.20
4755;DHT22;2391;47.212;7.542;2023-12-04T16:25:08;2.60;85.20